sensor_id;sensor_type;location;lat;lon;timestamp;P1;durP1;ratioP1;P2;durP2;ratioP2
29906;SDS011;16776;50.958;10.994;2023-02-12T00:01:58;5.75;;;3.92;;
29906;SDS011;16776;50.958;10.994;2023-02-12T00:04:25;5.65;;;3.75;;
29906;SDS011;16776;50.958;10.994;2023-02-12T00:06:53;5.90;;;4.28;;
29906;SDS011;16776;50.958;10.994;2023-02-12T00:09:19;7.03;;;4.25;;
29906;SDS011;16776;50.958;10.994;2023-02-12T00:11:46;5.13;;;3.47;;
29906;SDS011;16776;50.958;10.994;2023-02-12T00:14:12;7.18;;;3.80;;
29906;SDS011;16776;50.958;10.994;2023-02-12T00:16:39;5.93;;;3.78;;
29906;SDS011;16776;50.958;10.994;2023-02-12T00:19:05;5.72;;;3.88;;
29906;SDS011;16776;50.958;10.994;2023-02-12T00:21:32;5.45;;;3.88;;
29906;SDS011;16776;50.958;10.994;2023-02-12T00:24:01;6.38;;;4.03;;
29906;SDS011;16776;50.958;10.994;2023-02-12T00:26:27;5.82;;;3.55;;
29906;SDS011;16776;50.958;10.994;2023-02-12T00:28:54;5.63;;;3.40;;
29906;SDS011;16776;50.958;10.994;2023-02-12T00:31:22;5.53;;;3.40;;
29906;SDS011;16776;50.958;10.994;2023-02-12T00:33:50;6.88;;;4.00;;
29906;SDS011;16776;50.958;10.994;2023-02-12T00:36:17;5.57;;;3.72;;
29906;SDS011;16776;50.958;10.994;2023-02-12T00:38:45;6.78;;;3.78;;
29906;SDS011;16776;50.958;10.994;2023-02-12T00:41:14;5.78;;;4.20;;
29906;SDS011;16776;50.958;10.994;2023-02-12T00:43:43;7.15;;;3.90;;
29906;SDS011;16776;50.958;10.994;2023-02-12T00:46:10;5.22;;;3.47;;
29906;SDS011;16776;50.958;10.994;2023-02-12T00:48:37;5.10;;;3.42;;
29906;SDS011;16776;50.958;10.994;2023-02-12T00:51:04;6.95;;;3.97;;
29906;SDS011;16776;50.958;10.994;2023-02-12T00:53:32;5.90;;;3.70;;
29906;SDS011;16776;50.958;10.994;2023-02-12T00:55:59;5.93;;;3.58;;
29906;SDS011;16776;50.958;10.994;2023-02-12T00:58:28;6.50;;;3.45;;
29906;SDS011;16776;50.958;10.994;2023-02-12T01:00:56;7.03;;;4.40;;
29906;SDS011;16776;50.958;10.994;2023-02-12T01:03:23;7.07;;;4.28;;
29906;SDS011;16776;50.958;10.994;2023-02-12T01:05:50;7.97;;;4.60;;
29906;SDS011;16776;50.958;10.994;2023-02-12T01:08:18;7.20;;;4.13;;
29906;SDS011;16776;50.958;10.994;2023-02-12T01:10:44;7.20;;;4.10;;
29906;SDS011;16776;50.958;10.994;2023-02-12T01:13:19;7.10;;;4.40;;
29906;SDS011;16776;50.958;10.994;2023-02-12T01:15:47;5.00;;;3.55;;
29906;SDS011;16776;50.958;10.994;2023-02-12T01:18:14;7.05;;;4.55;;
29906;SDS011;16776;50.958;10.994;2023-02-12T01:20:41;7.75;;;4.07;;
29906;SDS011;16776;50.958;10.994;2023-02-12T01:23:07;6.05;;;4.20;;
29906;SDS011;16776;50.958;10.994;2023-02-12T01:25:34;6.88;;;4.05;;
29906;SDS011;16776;50.958;10.994;2023-02-12T01:28:00;7.50;;;4.32;;
29906;SDS011;16776;50.958;10.994;2023-02-12T01:30:27;7.82;;;4.40;;
29906;SDS011;16776;50.958;10.994;2023-02-12T01:32:55;6.07;;;3.85;;
29906;SDS011;16776;50.958;10.994;2023-02-12T01:35:22;5.53;;;3.55;;
29906;SDS011;16776;50.958;10.994;2023-02-12T01:37:49;6.80;;;4.20;;
29906;SDS011;16776;50.958;10.994;2023-02-12T01:40:15;6.35;;;3.95;;
29906;SDS011;16776;50.958;10.994;2023-02-12T01:42:51;5.43;;;3.85;;
29906;SDS011;16776;50.958;10.994;2023-02-12T01:45:37;6.88;;;3.88;;
29906;SDS011;16776;50.958;10.994;2023-02-12T01:48:12;5.32;;;3.83;;
29906;SDS011;16776;50.958;10.994;2023-02-12T01:50:42;6.05;;;4.45;;
29906;SDS011;16776;50.958;10.994;2023-02-12T01:53:10;6.22;;;4.07;;
29906;SDS011;16776;50.958;10.994;2023-02-12T01:55:43;5.80;;;3.53;;
29906;SDS011;16776;50.958;10.994;2023-02-12T01:58:12;5.00;;;3.42;;
29906;SDS011;16776;50.958;10.994;2023-02-12T02:00:39;3.92;;;3.22;;
29906;SDS011;16776;50.958;10.994;2023-02-12T02:03:06;5.93;;;3.55;;
29906;SDS011;16776;50.958;10.994;2023-02-12T02:05:37;6.55;;;4.00;;
29906;SDS011;16776;50.958;10.994;2023-02-12T02:08:09;6.45;;;3.30;;
29906;SDS011;16776;50.958;10.994;2023-02-12T02:10:36;5.18;;;3.40;;
29906;SDS011;16776;50.958;10.994;2023-02-12T02:13:06;5.78;;;4.15;;
29906;SDS011;16776;50.958;10.994;2023-02-12T02:15:52;4.57;;;3.08;;
29906;SDS011;16776;50.958;10.994;2023-02-12T02:18:26;5.80;;;3.72;;
29906;SDS011;16776;50.958;10.994;2023-02-12T02:23:59;4.70;;;2.88;;
29906;SDS011;16776;50.958;10.994;2023-02-12T02:26:47;4.47;;;3.40;;
29906;SDS011;16776;50.958;10.994;2023-02-12T02:32:24;4.90;;;3.35;;
29906;SDS011;16776;50.958;10.994;2023-02-12T02:34:56;6.07;;;3.40;;
29906;SDS011;16776;50.958;10.994;2023-02-12T02:37:30;5.05;;;3.17;;
29906;SDS011;16776;50.958;10.994;2023-02-12T02:40:02;5.15;;;2.92;;
29906;SDS011;16776;50.958;10.994;2023-02-12T02:42:38;5.18;;;3.55;;
29906;SDS011;16776;50.958;10.994;2023-02-12T02:45:10;6.93;;;3.67;;
29906;SDS011;16776;50.958;10.994;2023-02-12T02:47:42;4.80;;;3.45;;
29906;SDS011;16776;50.958;10.994;2023-02-12T02:50:16;4.60;;;2.97;;
29906;SDS011;16776;50.958;10.994;2023-02-12T02:52:47;4.90;;;3.00;;
29906;SDS011;16776;50.958;10.994;2023-02-12T02:55:17;3.80;;;2.53;;
29906;SDS011;16776;50.958;10.994;2023-02-12T02:57:47;3.45;;;2.60;;
29906;SDS011;16776;50.958;10.994;2023-02-12T03:00:18;6.05;;;3.40;;
29906;SDS011;16776;50.958;10.994;2023-02-12T03:02:49;4.50;;;2.92;;
29906;SDS011;16776;50.958;10.994;2023-02-12T03:05:21;4.53;;;2.95;;
29906;SDS011;16776;50.958;10.994;2023-02-12T03:07:53;4.28;;;3.08;;
29906;SDS011;16776;50.958;10.994;2023-02-12T03:10:28;5.15;;;2.97;;
29906;SDS011;16776;50.958;10.994;2023-02-12T03:13:00;4.80;;;3.25;;
29906;SDS011;16776;50.958;10.994;2023-02-12T03:15:33;5.82;;;3.33;;
29906;SDS011;16776;50.958;10.994;2023-02-12T03:18:07;5.07;;;3.17;;
29906;SDS011;16776;50.958;10.994;2023-02-12T03:20:39;4.45;;;3.08;;
29906;SDS011;16776;50.958;10.994;2023-02-12T03:23:11;4.28;;;3.28;;
29906;SDS011;16776;50.958;10.994;2023-02-12T03:25:43;5.63;;;3.78;;
29906;SDS011;16776;50.958;10.994;2023-02-12T03:28:18;7.03;;;3.47;;
29906;SDS011;16776;50.958;10.994;2023-02-12T03:30:50;5.63;;;3.20;;
29906;SDS011;16776;50.958;10.994;2023-02-12T03:33:26;4.55;;;3.50;;
29906;SDS011;16776;50.958;10.994;2023-02-12T03:36:00;4.35;;;2.83;;
29906;SDS011;16776;50.958;10.994;2023-02-12T03:38:33;5.55;;;3.25;;
29906;SDS011;16776;50.958;10.994;2023-02-12T03:43:35;3.63;;;2.33;;
29906;SDS011;16776;50.958;10.994;2023-02-12T03:46:12;4.05;;;2.55;;
29906;SDS011;16776;50.958;10.994;2023-02-12T03:48:46;4.13;;;2.67;;
29906;SDS011;16776;50.958;10.994;2023-02-12T03:51:24;4.15;;;3.15;;
29906;SDS011;16776;50.958;10.994;2023-02-12T03:53:59;3.60;;;2.92;;
29906;SDS011;16776;50.958;10.994;2023-02-12T03:56:27;5.03;;;3.08;;
29906;SDS011;16776;50.958;10.994;2023-02-12T03:58:58;4.55;;;3.05;;
29906;SDS011;16776;50.958;10.994;2023-02-12T04:01:25;4.32;;;3.00;;
29906;SDS011;16776;50.958;10.994;2023-02-12T04:03:53;3.50;;;2.70;;
29906;SDS011;16776;50.958;10.994;2023-02-12T04:06:21;4.35;;;3.08;;
29906;SDS011;16776;50.958;10.994;2023-02-12T04:08:49;5.28;;;3.15;;
29906;SDS011;16776;50.958;10.994;2023-02-12T04:11:19;4.85;;;3.30;;
29906;SDS011;16776;50.958;10.994;2023-02-12T04:13:58;5.15;;;3.25;;
29906;SDS011;16776;50.958;10.994;2023-02-12T04:16:39;4.45;;;2.97;;
29906;SDS011;16776;50.958;10.994;2023-02-12T04:19:12;5.47;;;3.00;;
29906;SDS011;16776;50.958;10.994;2023-02-12T04:21:43;4.97;;;2.95;;
29906;SDS011;16776;50.958;10.994;2023-02-12T04:24:24;5.03;;;2.75;;
29906;SDS011;16776;50.958;10.994;2023-02-12T04:26:59;5.30;;;3.30;;
29906;SDS011;16776;50.958;10.994;2023-02-12T04:29:35;4.43;;;3.15;;
29906;SDS011;16776;50.958;10.994;2023-02-12T04:32:11;3.72;;;2.97;;
29906;SDS011;16776;50.958;10.994;2023-02-12T04:34:44;4.38;;;3.05;;
29906;SDS011;16776;50.958;10.994;2023-02-12T04:37:18;4.30;;;3.15;;
29906;SDS011;16776;50.958;10.994;2023-02-12T04:39:47;5.60;;;3.60;;
29906;SDS011;16776;50.958;10.994;2023-02-12T04:42:15;6.05;;;2.88;;
29906;SDS011;16776;50.958;10.994;2023-02-12T04:44:42;7.32;;;3.63;;
29906;SDS011;16776;50.958;10.994;2023-02-12T04:47:09;4.32;;;2.92;;
29906;SDS011;16776;50.958;10.994;2023-02-12T04:49:37;4.68;;;3.45;;
29906;SDS011;16776;50.958;10.994;2023-02-12T04:52:05;5.93;;;3.88;;
29906;SDS011;16776;50.958;10.994;2023-02-12T04:54:32;3.78;;;3.10;;
29906;SDS011;16776;50.958;10.994;2023-02-12T04:57:02;5.43;;;3.53;;
29906;SDS011;16776;50.958;10.994;2023-02-12T04:59:29;4.22;;;3.53;;
29906;SDS011;16776;50.958;10.994;2023-02-12T05:01:55;4.72;;;3.35;;
29906;SDS011;16776;50.958;10.994;2023-02-12T05:04:22;5.88;;;3.45;;
29906;SDS011;16776;50.958;10.994;2023-02-12T05:06:48;3.50;;;2.95;;
29906;SDS011;16776;50.958;10.994;2023-02-12T05:09:17;5.22;;;3.47;;
29906;SDS011;16776;50.958;10.994;2023-02-12T05:11:45;7.10;;;3.63;;
29906;SDS011;16776;50.958;10.994;2023-02-12T05:14:12;5.50;;;3.38;;
29906;SDS011;16776;50.958;10.994;2023-02-12T05:16:39;5.35;;;3.55;;
29906;SDS011;16776;50.958;10.994;2023-02-12T05:19:05;4.72;;;3.40;;
29906;SDS011;16776;50.958;10.994;2023-02-12T05:21:33;5.55;;;3.72;;
29906;SDS011;16776;50.958;10.994;2023-02-12T05:24:00;3.97;;;3.40;;
29906;SDS011;16776;50.958;10.994;2023-02-12T05:26:28;6.13;;;3.70;;
29906;SDS011;16776;50.958;10.994;2023-02-12T05:28:54;5.78;;;3.78;;
29906;SDS011;16776;50.958;10.994;2023-02-12T05:31:21;5.05;;;3.20;;
29906;SDS011;16776;50.958;10.994;2023-02-12T05:33:48;4.88;;;3.25;;
29906;SDS011;16776;50.958;10.994;2023-02-12T05:36:16;5.78;;;3.38;;
29906;SDS011;16776;50.958;10.994;2023-02-12T05:38:46;4.88;;;3.17;;
29906;SDS011;16776;50.958;10.994;2023-02-12T05:41:13;7.47;;;4.90;;
29906;SDS011;16776;50.958;10.994;2023-02-12T05:43:43;6.05;;;3.70;;
29906;SDS011;16776;50.958;10.994;2023-02-12T05:46:10;5.78;;;3.72;;
29906;SDS011;16776;50.958;10.994;2023-02-12T05:48:37;5.53;;;3.80;;
29906;SDS011;16776;50.958;10.994;2023-02-12T05:51:05;5.78;;;3.50;;
29906;SDS011;16776;50.958;10.994;2023-02-12T05:53:34;6.20;;;3.78;;
29906;SDS011;16776;50.958;10.994;2023-02-12T05:56:05;7.05;;;4.15;;
29906;SDS011;16776;50.958;10.994;2023-02-12T05:58:35;6.13;;;3.60;;
29906;SDS011;16776;50.958;10.994;2023-02-12T06:01:07;5.75;;;4.00;;
29906;SDS011;16776;50.958;10.994;2023-02-12T06:03:34;6.18;;;3.70;;
29906;SDS011;16776;50.958;10.994;2023-02-12T06:06:01;6.22;;;4.05;;
29906;SDS011;16776;50.958;10.994;2023-02-12T06:08:29;7.65;;;3.95;;
29906;SDS011;16776;50.958;10.994;2023-02-12T06:10:58;5.88;;;4.20;;
29906;SDS011;16776;50.958;10.994;2023-02-12T06:13:25;6.97;;;4.22;;
29906;SDS011;16776;50.958;10.994;2023-02-12T06:15:52;6.10;;;4.07;;
29906;SDS011;16776;50.958;10.994;2023-02-12T06:18:20;4.47;;;3.42;;
29906;SDS011;16776;50.958;10.994;2023-02-12T06:20:46;4.63;;;3.10;;
29906;SDS011;16776;50.958;10.994;2023-02-12T06:23:18;5.93;;;3.65;;
29906;SDS011;16776;50.958;10.994;2023-02-12T06:25:44;5.13;;;3.47;;
29906;SDS011;16776;50.958;10.994;2023-02-12T06:28:11;5.03;;;3.33;;
29906;SDS011;16776;50.958;10.994;2023-02-12T06:30:40;6.18;;;4.20;;
29906;SDS011;16776;50.958;10.994;2023-02-12T06:33:08;5.22;;;3.40;;
29906;SDS011;16776;50.958;10.994;2023-02-12T06:35:36;5.05;;;3.42;;
29906;SDS011;16776;50.958;10.994;2023-02-12T06:38:03;5.57;;;4.07;;
29906;SDS011;16776;50.958;10.994;2023-02-12T06:40:30;4.95;;;3.72;;
29906;SDS011;16776;50.958;10.994;2023-02-12T06:42:57;5.25;;;3.47;;
29906;SDS011;16776;50.958;10.994;2023-02-12T06:45:24;6.28;;;4.35;;
29906;SDS011;16776;50.958;10.994;2023-02-12T06:47:53;5.88;;;3.45;;
29906;SDS011;16776;50.958;10.994;2023-02-12T06:50:20;6.80;;;4.22;;
29906;SDS011;16776;50.958;10.994;2023-02-12T06:52:48;6.15;;;3.90;;
29906;SDS011;16776;50.958;10.994;2023-02-12T06:55:14;7.18;;;3.88;;
29906;SDS011;16776;50.958;10.994;2023-02-12T06:57:43;8.20;;;4.18;;
29906;SDS011;16776;50.958;10.994;2023-02-12T07:00:13;6.07;;;4.00;;
29906;SDS011;16776;50.958;10.994;2023-02-12T07:02:40;6.65;;;4.18;;
29906;SDS011;16776;50.958;10.994;2023-02-12T07:05:06;5.70;;;3.72;;
29906;SDS011;16776;50.958;10.994;2023-02-12T07:07:34;5.63;;;3.90;;
29906;SDS011;16776;50.958;10.994;2023-02-12T07:10:02;6.22;;;4.05;;
29906;SDS011;16776;50.958;10.994;2023-02-12T07:12:29;6.95;;;4.10;;
29906;SDS011;16776;50.958;10.994;2023-02-12T07:14:58;5.30;;;3.30;;
29906;SDS011;16776;50.958;10.994;2023-02-12T07:17:24;5.97;;;3.33;;
29906;SDS011;16776;50.958;10.994;2023-02-12T07:19:51;5.03;;;3.25;;
29906;SDS011;16776;50.958;10.994;2023-02-12T07:22:17;5.88;;;3.58;;
29906;SDS011;16776;50.958;10.994;2023-02-12T07:24:45;5.72;;;3.85;;
29906;SDS011;16776;50.958;10.994;2023-02-12T07:27:13;6.60;;;4.13;;
29906;SDS011;16776;50.958;10.994;2023-02-12T07:29:39;5.75;;;4.22;;
29906;SDS011;16776;50.958;10.994;2023-02-12T07:32:06;5.90;;;3.58;;
29906;SDS011;16776;50.958;10.994;2023-02-12T07:34:32;4.90;;;3.40;;
29906;SDS011;16776;50.958;10.994;2023-02-12T07:37:02;7.13;;;3.88;;
29906;SDS011;16776;50.958;10.994;2023-02-12T07:39:28;5.57;;;3.60;;
29906;SDS011;16776;50.958;10.994;2023-02-12T07:41:55;5.85;;;3.75;;
29906;SDS011;16776;50.958;10.994;2023-02-12T07:44:23;7.65;;;4.35;;
29906;SDS011;16776;50.958;10.994;2023-02-12T07:46:51;5.50;;;3.90;;
29906;SDS011;16776;50.958;10.994;2023-02-12T07:49:18;5.18;;;3.33;;
29906;SDS011;16776;50.958;10.994;2023-02-12T07:51:46;5.07;;;3.15;;
29906;SDS011;16776;50.958;10.994;2023-02-12T07:54:14;5.38;;;3.78;;
29906;SDS011;16776;50.958;10.994;2023-02-12T07:56:41;4.38;;;3.35;;
29906;SDS011;16776;50.958;10.994;2023-02-12T07:59:11;5.60;;;3.75;;
29906;SDS011;16776;50.958;10.994;2023-02-12T08:01:40;4.15;;;2.55;;
29906;SDS011;16776;50.958;10.994;2023-02-12T08:04:11;4.93;;;2.65;;
29906;SDS011;16776;50.958;10.994;2023-02-12T08:06:40;6.45;;;2.97;;
29906;SDS011;16776;50.958;10.994;2023-02-12T08:09:09;5.07;;;3.22;;
29906;SDS011;16776;50.958;10.994;2023-02-12T08:11:38;5.68;;;3.55;;
29906;SDS011;16776;50.958;10.994;2023-02-12T08:14:05;6.07;;;3.83;;
29906;SDS011;16776;50.958;10.994;2023-02-12T08:16:34;5.90;;;3.80;;
29906;SDS011;16776;50.958;10.994;2023-02-12T08:19:04;5.13;;;3.38;;
29906;SDS011;16776;50.958;10.994;2023-02-12T08:21:31;4.72;;;3.72;;
29906;SDS011;16776;50.958;10.994;2023-02-12T08:23:58;5.90;;;4.07;;
29906;SDS011;16776;50.958;10.994;2023-02-12T08:26:26;6.95;;;4.00;;
29906;SDS011;16776;50.958;10.994;2023-02-12T08:28:54;6.63;;;4.80;;
29906;SDS011;16776;50.958;10.994;2023-02-12T08:31:24;5.82;;;4.07;;
29906;SDS011;16776;50.958;10.994;2023-02-12T08:33:57;6.40;;;4.25;;
29906;SDS011;16776;50.958;10.994;2023-02-12T08:36:26;6.85;;;4.63;;
29906;SDS011;16776;50.958;10.994;2023-02-12T08:38:56;5.55;;;3.80;;
29906;SDS011;16776;50.958;10.994;2023-02-12T08:41:25;7.90;;;4.78;;
29906;SDS011;16776;50.958;10.994;2023-02-12T08:43:53;7.32;;;4.70;;
29906;SDS011;16776;50.958;10.994;2023-02-12T08:46:23;7.70;;;4.97;;
29906;SDS011;16776;50.958;10.994;2023-02-12T08:48:51;9.55;;;5.22;;
29906;SDS011;16776;50.958;10.994;2023-02-12T08:51:19;8.82;;;4.93;;
29906;SDS011;16776;50.958;10.994;2023-02-12T08:53:50;8.13;;;5.68;;
29906;SDS011;16776;50.958;10.994;2023-02-12T08:56:18;7.88;;;4.80;;
29906;SDS011;16776;50.958;10.994;2023-02-12T08:58:45;8.32;;;4.80;;
29906;SDS011;16776;50.958;10.994;2023-02-12T09:01:14;8.98;;;4.82;;
29906;SDS011;16776;50.958;10.994;2023-02-12T09:03:42;9.05;;;5.05;;
29906;SDS011;16776;50.958;10.994;2023-02-12T09:06:10;7.70;;;5.10;;
29906;SDS011;16776;50.958;10.994;2023-02-12T09:08:37;7.40;;;4.53;;
29906;SDS011;16776;50.958;10.994;2023-02-12T09:11:07;8.23;;;5.10;;
29906;SDS011;16776;50.958;10.994;2023-02-12T09:13:35;9.63;;;5.20;;
29906;SDS011;16776;50.958;10.994;2023-02-12T09:16:02;8.80;;;4.88;;
29906;SDS011;16776;50.958;10.994;2023-02-12T09:18:30;7.70;;;4.38;;
29906;SDS011;16776;50.958;10.994;2023-02-12T09:20:59;9.15;;;5.28;;
29906;SDS011;16776;50.958;10.994;2023-02-12T09:23:27;8.10;;;4.57;;
29906;SDS011;16776;50.958;10.994;2023-02-12T09:25:53;7.70;;;4.85;;
29906;SDS011;16776;50.958;10.994;2023-02-12T09:28:21;7.93;;;4.88;;
29906;SDS011;16776;50.958;10.994;2023-02-12T09:30:48;8.38;;;4.63;;
29906;SDS011;16776;50.958;10.994;2023-02-12T09:33:15;10.00;;;5.05;;
29906;SDS011;16776;50.958;10.994;2023-02-12T09:35:44;6.65;;;4.13;;
29906;SDS011;16776;50.958;10.994;2023-02-12T09:38:11;8.10;;;4.40;;
29906;SDS011;16776;50.958;10.994;2023-02-12T09:40:39;7.10;;;4.47;;
29906;SDS011;16776;50.958;10.994;2023-02-12T09:43:16;9.70;;;4.75;;
29906;SDS011;16776;50.958;10.994;2023-02-12T09:51:08;6.50;;;4.05;;
29906;SDS011;16776;50.958;10.994;2023-02-12T09:53:36;9.00;;;5.25;;
29906;SDS011;16776;50.958;10.994;2023-02-12T09:56:09;8.57;;;4.65;;
29906;SDS011;16776;50.958;10.994;2023-02-12T09:58:40;9.07;;;4.87;;
29906;SDS011;16776;50.958;10.994;2023-02-12T10:01:12;9.52;;;4.63;;
29906;SDS011;16776;50.958;10.994;2023-02-12T10:03:40;7.18;;;4.28;;
29906;SDS011;16776;50.958;10.994;2023-02-12T10:06:10;6.13;;;4.18;;
29906;SDS011;16776;50.958;10.994;2023-02-12T10:08:44;7.18;;;5.13;;
29906;SDS011;16776;50.958;10.994;2023-02-12T10:11:22;8.18;;;4.63;;
29906;SDS011;16776;50.958;10.994;2023-02-12T10:13:59;7.68;;;4.53;;
29906;SDS011;16776;50.958;10.994;2023-02-12T10:16:41;6.85;;;3.97;;
29906;SDS011;16776;50.958;10.994;2023-02-12T10:19:22;7.13;;;4.72;;
29906;SDS011;16776;50.958;10.994;2023-02-12T10:22:03;6.78;;;4.07;;
29906;SDS011;16776;50.958;10.994;2023-02-12T10:24:53;6.30;;;3.70;;
29906;SDS011;16776;50.958;10.994;2023-02-12T10:27:30;6.00;;;3.70;;
29906;SDS011;16776;50.958;10.994;2023-02-12T10:30:03;6.38;;;3.58;;
29906;SDS011;16776;50.958;10.994;2023-02-12T10:32:43;6.05;;;3.80;;
29906;SDS011;16776;50.958;10.994;2023-02-12T10:35:13;5.57;;;3.65;;
29906;SDS011;16776;50.958;10.994;2023-02-12T10:37:42;7.93;;;4.75;;
29906;SDS011;16776;50.958;10.994;2023-02-12T10:40:14;5.25;;;3.30;;
29906;SDS011;16776;50.958;10.994;2023-02-12T10:42:46;5.68;;;3.38;;
29906;SDS011;16776;50.958;10.994;2023-02-12T10:45:15;5.60;;;3.53;;
29906;SDS011;16776;50.958;10.994;2023-02-12T10:47:44;6.50;;;3.78;;
29906;SDS011;16776;50.958;10.994;2023-02-12T10:50:20;5.72;;;3.72;;
29906;SDS011;16776;50.958;10.994;2023-02-12T10:53:02;4.32;;;3.08;;
29906;SDS011;16776;50.958;10.994;2023-02-12T10:55:30;7.05;;;3.83;;
29906;SDS011;16776;50.958;10.994;2023-02-12T10:57:58;5.90;;;3.67;;
29906;SDS011;16776;50.958;10.994;2023-02-12T11:00:28;4.55;;;3.30;;
29906;SDS011;16776;50.958;10.994;2023-02-12T11:03:08;4.72;;;3.40;;
29906;SDS011;16776;50.958;10.994;2023-02-12T11:05:45;5.28;;;3.25;;
29906;SDS011;16776;50.958;10.994;2023-02-12T11:08:25;6.03;;;3.65;;
29906;SDS011;16776;50.958;10.994;2023-02-12T11:10:55;6.25;;;3.67;;
29906;SDS011;16776;50.958;10.994;2023-02-12T11:13:32;4.55;;;3.17;;
29906;SDS011;16776;50.958;10.994;2023-02-12T11:15:59;3.45;;;2.53;;
29906;SDS011;16776;50.958;10.994;2023-02-12T11:18:27;4.70;;;2.90;;
29906;SDS011;16776;50.958;10.994;2023-02-12T11:20:57;4.50;;;3.13;;
29906;SDS011;16776;50.958;10.994;2023-02-12T11:23:26;4.88;;;3.15;;
29906;SDS011;16776;50.958;10.994;2023-02-12T11:25:55;4.75;;;3.08;;
29906;SDS011;16776;50.958;10.994;2023-02-12T11:28:24;3.13;;;2.28;;
29906;SDS011;16776;50.958;10.994;2023-02-12T11:30:52;4.82;;;2.72;;
29906;SDS011;16776;50.958;10.994;2023-02-12T11:33:23;7.32;;;3.80;;
29906;SDS011;16776;50.958;10.994;2023-02-12T11:35:59;6.13;;;3.97;;
29906;SDS011;16776;50.958;10.994;2023-02-12T11:38:30;4.78;;;3.45;;
29906;SDS011;16776;50.958;10.994;2023-02-12T11:41:00;4.57;;;3.00;;
29906;SDS011;16776;50.958;10.994;2023-02-12T11:43:32;3.47;;;2.50;;
29906;SDS011;16776;50.958;10.994;2023-02-12T11:46:02;3.92;;;2.53;;
29906;SDS011;16776;50.958;10.994;2023-02-12T11:48:32;3.88;;;2.63;;
29906;SDS011;16776;50.958;10.994;2023-02-12T11:51:03;2.60;;;2.22;;
29906;SDS011;16776;50.958;10.994;2023-02-12T11:53:34;3.35;;;2.40;;
29906;SDS011;16776;50.958;10.994;2023-02-12T11:56:05;2.45;;;1.90;;
29906;SDS011;16776;50.958;10.994;2023-02-12T11:58:33;3.85;;;2.30;;
29906;SDS011;16776;50.958;10.994;2023-02-12T12:01:02;3.53;;;2.53;;
29906;SDS011;16776;50.958;10.994;2023-02-12T12:03:33;2.80;;;2.17;;
29906;SDS011;16776;50.958;10.994;2023-02-12T12:06:07;2.97;;;2.03;;
29906;SDS011;16776;50.958;10.994;2023-02-12T12:08:55;2.90;;;2.10;;
29906;SDS011;16776;50.958;10.994;2023-02-12T12:11:25;3.03;;;2.03;;
29906;SDS011;16776;50.958;10.994;2023-02-12T12:14:00;2.60;;;2.00;;
29906;SDS011;16776;50.958;10.994;2023-02-12T12:16:35;2.22;;;1.88;;
29906;SDS011;16776;50.958;10.994;2023-02-12T12:19:26;2.85;;;1.92;;
29906;SDS011;16776;50.958;10.994;2023-02-12T12:22:13;2.78;;;2.10;;
29906;SDS011;16776;50.958;10.994;2023-02-12T12:24:49;2.92;;;2.08;;
29906;SDS011;16776;50.958;10.994;2023-02-12T12:27:22;3.08;;;2.00;;
29906;SDS011;16776;50.958;10.994;2023-02-12T12:32:45;2.00;;;1.80;;
29906;SDS011;16776;50.958;10.994;2023-02-12T12:35:15;2.10;;;1.70;;
29906;SDS011;16776;50.958;10.994;2023-02-12T12:40:31;2.03;;;1.52;;
29906;SDS011;16776;50.958;10.994;2023-02-12T12:43:17;3.03;;;2.15;;
29906;SDS011;16776;50.958;10.994;2023-02-12T12:46:06;2.10;;;1.58;;
29906;SDS011;16776;50.958;10.994;2023-02-12T12:48:47;2.65;;;1.58;;
29906;SDS011;16776;50.958;10.994;2023-02-12T12:51:28;2.55;;;1.73;;
29906;SDS011;16776;50.958;10.994;2023-02-12T12:54:12;2.28;;;1.60;;
29906;SDS011;16776;50.958;10.994;2023-02-12T12:56:52;2.22;;;1.58;;
29906;SDS011;16776;50.958;10.994;2023-02-12T12:59:30;2.10;;;1.60;;
29906;SDS011;16776;50.958;10.994;2023-02-12T13:02:26;2.22;;;1.55;;
29906;SDS011;16776;50.958;10.994;2023-02-12T13:08:38;2.10;;;1.63;;
29906;SDS011;16776;50.958;10.994;2023-02-12T13:11:26;1.77;;;1.38;;
29906;SDS011;16776;50.958;10.994;2023-02-12T13:14:06;1.30;;;1.20;;
29906;SDS011;16776;50.958;10.994;2023-02-12T13:16:53;1.40;;;1.27;;
29906;SDS011;16776;50.958;10.994;2023-02-12T13:19:29;2.28;;;1.30;;
29906;SDS011;16776;50.958;10.994;2023-02-12T13:22:04;1.85;;;1.40;;
29906;SDS011;16776;50.958;10.994;2023-02-12T13:27:13;2.22;;;1.40;;
29906;SDS011;16776;50.958;10.994;2023-02-12T13:29:45;1.30;;;0.98;;
29906;SDS011;16776;50.958;10.994;2023-02-12T13:32:19;1.92;;;1.33;;
29906;SDS011;16776;50.958;10.994;2023-02-12T13:34:50;1.95;;;1.52;;
29906;SDS011;16776;50.958;10.994;2023-02-12T13:37:20;1.83;;;1.20;;
29906;SDS011;16776;50.958;10.994;2023-02-12T13:40:01;1.90;;;1.02;;
29906;SDS011;16776;50.958;10.994;2023-02-12T13:42:35;1.15;;;1.00;;
29906;SDS011;16776;50.958;10.994;2023-02-12T13:45:13;1.30;;;0.95;;
29906;SDS011;16776;50.958;10.994;2023-02-12T13:47:58;1.48;;;1.05;;
29906;SDS011;16776;50.958;10.994;2023-02-12T13:50:43;1.63;;;1.10;;
29906;SDS011;16776;50.958;10.994;2023-02-12T13:53:18;1.45;;;1.10;;
29906;SDS011;16776;50.958;10.994;2023-02-12T13:55:57;2.08;;;1.10;;
29906;SDS011;16776;50.958;10.994;2023-02-12T13:58:44;1.13;;;0.93;;
29906;SDS011;16776;50.958;10.994;2023-02-12T14:04:27;1.63;;;0.95;;
29906;SDS011;16776;50.958;10.994;2023-02-12T14:06:57;1.25;;;1.15;;
29906;SDS011;16776;50.958;10.994;2023-02-12T14:09:35;1.20;;;0.95;;
29906;SDS011;16776;50.958;10.994;2023-02-12T14:12:06;1.27;;;1.15;;
29906;SDS011;16776;50.958;10.994;2023-02-12T14:14:37;1.15;;;0.88;;
29906;SDS011;16776;50.958;10.994;2023-02-12T14:20:06;1.20;;;1.10;;
29906;SDS011;16776;50.958;10.994;2023-02-12T14:22:59;1.20;;;1.00;;
29906;SDS011;16776;50.958;10.994;2023-02-12T14:25:36;1.27;;;1.05;;
29906;SDS011;16776;50.958;10.994;2023-02-12T14:28:12;1.73;;;1.30;;
29906;SDS011;16776;50.958;10.994;2023-02-12T14:37:16;1.25;;;1.15;;
29906;SDS011;16776;50.958;10.994;2023-02-12T14:45:55;1.85;;;1.38;;
29906;SDS011;16776;50.958;10.994;2023-02-12T14:48:39;2.28;;;1.45;;
29906;SDS011;16776;50.958;10.994;2023-02-12T14:51:15;2.40;;;1.40;;
29906;SDS011;16776;50.958;10.994;2023-02-12T14:53:47;2.13;;;1.58;;
29906;SDS011;16776;50.958;10.994;2023-02-12T14:56:18;2.30;;;1.83;;
29906;SDS011;16776;50.958;10.994;2023-02-12T14:58:47;2.38;;;1.67;;
29906;SDS011;16776;50.958;10.994;2023-02-12T15:01:15;1.80;;;1.33;;
29906;SDS011;16776;50.958;10.994;2023-02-12T15:03:44;2.85;;;1.70;;
29906;SDS011;16776;50.958;10.994;2023-02-12T15:06:16;1.88;;;1.55;;
29906;SDS011;16776;50.958;10.994;2023-02-12T15:08:46;3.42;;;2.00;;
29906;SDS011;16776;50.958;10.994;2023-02-12T15:11:22;2.47;;;1.45;;
29906;SDS011;16776;50.958;10.994;2023-02-12T15:13:56;2.00;;;1.20;;
29906;SDS011;16776;50.958;10.994;2023-02-12T15:16:28;1.58;;;1.48;;
29906;SDS011;16776;50.958;10.994;2023-02-12T15:19:01;1.38;;;1.27;;
29906;SDS011;16776;50.958;10.994;2023-02-12T15:21:35;2.40;;;1.67;;
29906;SDS011;16776;50.958;10.994;2023-02-12T15:24:04;2.47;;;1.67;;
29906;SDS011;16776;50.958;10.994;2023-02-12T15:26:39;2.30;;;1.67;;
29906;SDS011;16776;50.958;10.994;2023-02-12T15:29:14;1.30;;;1.17;;
29906;SDS011;16776;50.958;10.994;2023-02-12T15:31:48;1.75;;;1.20;;
29906;SDS011;16776;50.958;10.994;2023-02-12T15:34:17;2.05;;;1.30;;
29906;SDS011;16776;50.958;10.994;2023-02-12T15:36:47;1.40;;;1.27;;
29906;SDS011;16776;50.958;10.994;2023-02-12T15:39:15;1.85;;;1.40;;
29906;SDS011;16776;50.958;10.994;2023-02-12T15:41:47;1.27;;;1.15;;